sensor_id;sensor_type;location;lat;lon;timestamp;P1;durP1;ratioP1;P2;durP2;ratioP2
29814;SDS011;16708;50.426;7.664;2024-03-07T00:03:04;46.10;;;16.50;;
29814;SDS011;16708;50.426;7.664;2024-03-07T00:07:58;49.20;;;17.20;;
29814;SDS011;16708;50.426;7.664;2024-03-07T00:12:52;54.90;;;18.60;;
29814;SDS011;16708;50.426;7.664;2024-03-07T00:17:46;57.80;;;19.00;;
29814;SDS011;16708;50.426;7.664;2024-03-07T00:22:39;61.10;;;20.50;;
29814;SDS011;16708;50.426;7.664;2024-03-07T00:27:34;51.40;;;18.50;;
29814;SDS011;16708;50.426;7.664;2024-03-07T00:37:22;48.20;;;17.00;;
29814;SDS011;16708;50.426;7.664;2024-03-07T00:42:16;50.00;;;17.50;;
29814;SDS011;16708;50.426;7.664;2024-03-07T00:52:02;54.40;;;18.90;;
29814;SDS011;16708;50.426;7.664;2024-03-07T00:56:57;53.70;;;17.30;;
29814;SDS011;16708;50.426;7.664;2024-03-07T01:01:51;50.70;;;17.40;;
29814;SDS011;16708;50.426;7.664;2024-03-07T01:06:45;48.00;;;16.90;;
29814;SDS011;16708;50.426;7.664;2024-03-07T01:11:39;49.10;;;16.80;;
29814;SDS011;16708;50.426;7.664;2024-03-07T01:16:33;48.10;;;17.10;;
29814;SDS011;16708;50.426;7.664;2024-03-07T01:21:28;49.70;;;17.20;;
29814;SDS011;16708;50.426;7.664;2024-03-07T01:26:22;44.00;;;15.40;;
29814;SDS011;16708;50.426;7.664;2024-03-07T01:31:16;47.20;;;16.20;;
29814;SDS011;16708;50.426;7.664;2024-03-07T01:36:10;43.30;;;15.50;;
29814;SDS011;16708;50.426;7.664;2024-03-07T01:41:01;41.60;;;15.10;;
29814;SDS011;16708;50.426;7.664;2024-03-07T01:45:56;43.50;;;15.40;;
29814;SDS011;16708;50.426;7.664;2024-03-07T01:50:48;47.70;;;16.10;;
29814;SDS011;16708;50.426;7.664;2024-03-07T01:55:42;45.40;;;16.90;;
29814;SDS011;16708;50.426;7.664;2024-03-07T02:00:35;44.50;;;16.60;;
29814;SDS011;16708;50.426;7.664;2024-03-07T02:05:29;41.70;;;16.40;;
29814;SDS011;16708;50.426;7.664;2024-03-07T02:10:23;43.20;;;16.60;;
29814;SDS011;16708;50.426;7.664;2024-03-07T02:15:17;44.10;;;16.90;;
29814;SDS011;16708;50.426;7.664;2024-03-07T02:20:12;45.60;;;16.90;;
29814;SDS011;16708;50.426;7.664;2024-03-07T02:25:05;44.30;;;17.50;;
29814;SDS011;16708;50.426;7.664;2024-03-07T02:30:00;43.00;;;17.70;;
29814;SDS011;16708;50.426;7.664;2024-03-07T02:34:54;46.50;;;17.60;;
29814;SDS011;16708;50.426;7.664;2024-03-07T02:39:47;45.40;;;17.30;;
29814;SDS011;16708;50.426;7.664;2024-03-07T02:44:41;45.10;;;17.70;;
29814;SDS011;16708;50.426;7.664;2024-03-07T02:49:34;49.00;;;18.00;;
29814;SDS011;16708;50.426;7.664;2024-03-07T02:54:28;47.00;;;18.60;;
29814;SDS011;16708;50.426;7.664;2024-03-07T02:59:22;52.90;;;20.30;;
29814;SDS011;16708;50.426;7.664;2024-03-07T03:04:16;53.80;;;20.90;;
29814;SDS011;16708;50.426;7.664;2024-03-07T03:09:09;60.50;;;22.00;;
29814;SDS011;16708;50.426;7.664;2024-03-07T03:14:03;62.40;;;23.20;;
29814;SDS011;16708;50.426;7.664;2024-03-07T03:18:57;61.70;;;22.10;;
29814;SDS011;16708;50.426;7.664;2024-03-07T03:23:51;63.50;;;23.20;;
29814;SDS011;16708;50.426;7.664;2024-03-07T03:28:46;62.40;;;24.10;;
29814;SDS011;16708;50.426;7.664;2024-03-07T03:33:40;67.20;;;24.40;;
29814;SDS011;16708;50.426;7.664;2024-03-07T03:38:34;67.10;;;25.00;;
29814;SDS011;16708;50.426;7.664;2024-03-07T03:43:28;67.80;;;25.10;;
29814;SDS011;16708;50.426;7.664;2024-03-07T03:48:23;67.80;;;25.20;;
29814;SDS011;16708;50.426;7.664;2024-03-07T03:53:16;69.30;;;25.80;;
29814;SDS011;16708;50.426;7.664;2024-03-07T03:58:11;63.90;;;24.60;;
29814;SDS011;16708;50.426;7.664;2024-03-07T04:03:05;73.90;;;25.10;;
29814;SDS011;16708;50.426;7.664;2024-03-07T04:07:59;70.10;;;25.50;;
29814;SDS011;16708;50.426;7.664;2024-03-07T04:12:52;76.20;;;28.40;;
29814;SDS011;16708;50.426;7.664;2024-03-07T04:17:47;73.50;;;26.80;;
29814;SDS011;16708;50.426;7.664;2024-03-07T04:22:41;68.00;;;25.30;;
29814;SDS011;16708;50.426;7.664;2024-03-07T04:27:35;74.40;;;27.10;;
29814;SDS011;16708;50.426;7.664;2024-03-07T04:32:29;83.60;;;27.50;;
29814;SDS011;16708;50.426;7.664;2024-03-07T04:37:23;75.50;;;26.00;;
29814;SDS011;16708;50.426;7.664;2024-03-07T04:42:17;89.40;;;29.70;;
29814;SDS011;16708;50.426;7.664;2024-03-07T04:47:10;69.60;;;24.70;;
29814;SDS011;16708;50.426;7.664;2024-03-07T04:52:04;73.60;;;25.20;;
29814;SDS011;16708;50.426;7.664;2024-03-07T04:56:59;83.90;;;27.10;;
29814;SDS011;16708;50.426;7.664;2024-03-07T05:01:53;85.00;;;27.10;;
29814;SDS011;16708;50.426;7.664;2024-03-07T05:06:47;89.20;;;28.50;;
29814;SDS011;16708;50.426;7.664;2024-03-07T05:11:41;85.80;;;29.20;;
29814;SDS011;16708;50.426;7.664;2024-03-07T05:16:35;82.30;;;27.70;;
29814;SDS011;16708;50.426;7.664;2024-03-07T05:21:30;84.10;;;27.20;;
29814;SDS011;16708;50.426;7.664;2024-03-07T05:26:24;88.10;;;28.00;;
29814;SDS011;16708;50.426;7.664;2024-03-07T05:31:18;95.10;;;29.40;;
29814;SDS011;16708;50.426;7.664;2024-03-07T05:36:12;99.60;;;31.20;;
29814;SDS011;16708;50.426;7.664;2024-03-07T05:41:04;101.70;;;30.60;;
29814;SDS011;16708;50.426;7.664;2024-03-07T05:45:58;96.90;;;30.60;;
29814;SDS011;16708;50.426;7.664;2024-03-07T05:50:53;98.00;;;30.50;;
29814;SDS011;16708;50.426;7.664;2024-03-07T05:55:47;93.10;;;31.70;;
29814;SDS011;16708;50.426;7.664;2024-03-07T06:00:42;97.60;;;31.90;;
29814;SDS011;16708;50.426;7.664;2024-03-07T06:05:35;84.40;;;29.30;;
29814;SDS011;16708;50.426;7.664;2024-03-07T06:10:30;85.70;;;28.90;;
29814;SDS011;16708;50.426;7.664;2024-03-07T06:20:18;86.70;;;28.70;;
29814;SDS011;16708;50.426;7.664;2024-03-07T06:25:12;79.60;;;27.40;;
29814;SDS011;16708;50.426;7.664;2024-03-07T06:30:05;83.40;;;27.30;;
29814;SDS011;16708;50.426;7.664;2024-03-07T06:34:59;83.50;;;28.00;;
29814;SDS011;16708;50.426;7.664;2024-03-07T06:39:54;86.90;;;28.40;;
29814;SDS011;16708;50.426;7.664;2024-03-07T06:44:48;72.20;;;26.20;;
29814;SDS011;16708;50.426;7.664;2024-03-07T06:49:42;72.60;;;26.50;;
29814;SDS011;16708;50.426;7.664;2024-03-07T06:54:36;81.40;;;31.20;;
29814;SDS011;16708;50.426;7.664;2024-03-07T06:59:29;81.70;;;30.70;;
29814;SDS011;16708;50.426;7.664;2024-03-07T07:04:24;79.30;;;28.70;;
29814;SDS011;16708;50.426;7.664;2024-03-07T07:09:18;74.60;;;27.80;;
29814;SDS011;16708;50.426;7.664;2024-03-07T07:14:12;63.40;;;25.20;;
29814;SDS011;16708;50.426;7.664;2024-03-07T07:24:01;54.80;;;23.00;;
29814;SDS011;16708;50.426;7.664;2024-03-07T07:28:56;50.60;;;21.70;;
29814;SDS011;16708;50.426;7.664;2024-03-07T07:33:50;46.50;;;19.80;;
29814;SDS011;16708;50.426;7.664;2024-03-07T07:38:44;42.70;;;18.90;;
29814;SDS011;16708;50.426;7.664;2024-03-07T07:43:37;40.60;;;17.90;;
29814;SDS011;16708;50.426;7.664;2024-03-07T07:48:30;36.70;;;16.10;;
29814;SDS011;16708;50.426;7.664;2024-03-07T07:53:25;38.00;;;16.50;;
29814;SDS011;16708;50.426;7.664;2024-03-07T07:58:19;35.00;;;15.80;;
29814;SDS011;16708;50.426;7.664;2024-03-07T08:03:12;32.30;;;14.50;;
29814;SDS011;16708;50.426;7.664;2024-03-07T08:08:06;34.30;;;14.90;;
29814;SDS011;16708;50.426;7.664;2024-03-07T08:13:01;31.10;;;14.40;;
29814;SDS011;16708;50.426;7.664;2024-03-07T08:17:55;32.70;;;14.50;;
29814;SDS011;16708;50.426;7.664;2024-03-07T08:22:49;31.70;;;14.30;;
29814;SDS011;16708;50.426;7.664;2024-03-07T08:27:42;30.10;;;13.70;;
29814;SDS011;16708;50.426;7.664;2024-03-07T08:32:36;32.20;;;13.60;;
29814;SDS011;16708;50.426;7.664;2024-03-07T08:37:30;27.00;;;12.90;;
29814;SDS011;16708;50.426;7.664;2024-03-07T08:42:25;25.80;;;12.60;;
29814;SDS011;16708;50.426;7.664;2024-03-07T08:52:10;28.00;;;13.70;;
29814;SDS011;16708;50.426;7.664;2024-03-07T08:57:04;24.20;;;12.70;;
29814;SDS011;16708;50.426;7.664;2024-03-07T09:01:59;26.60;;;12.80;;
29814;SDS011;16708;50.426;7.664;2024-03-07T09:06:53;23.80;;;12.30;;
29814;SDS011;16708;50.426;7.664;2024-03-07T09:16:42;24.60;;;11.70;;
29814;SDS011;16708;50.426;7.664;2024-03-07T09:21:36;21.50;;;11.40;;
29814;SDS011;16708;50.426;7.664;2024-03-07T09:26:29;24.10;;;12.30;;
29814;SDS011;16708;50.426;7.664;2024-03-07T09:31:24;22.60;;;12.10;;
29814;SDS011;16708;50.426;7.664;2024-03-07T09:36:20;22.40;;;12.00;;
29814;SDS011;16708;50.426;7.664;2024-03-07T09:41:15;20.00;;;11.50;;
29814;SDS011;16708;50.426;7.664;2024-03-07T09:46:11;18.80;;;11.00;;
29814;SDS011;16708;50.426;7.664;2024-03-07T09:55:58;22.20;;;13.60;;
29814;SDS011;16708;50.426;7.664;2024-03-07T10:00:52;23.50;;;14.30;;
29814;SDS011;16708;50.426;7.664;2024-03-07T10:05:45;23.20;;;13.50;;
29814;SDS011;16708;50.426;7.664;2024-03-07T10:10:39;24.10;;;13.80;;
29814;SDS011;16708;50.426;7.664;2024-03-07T10:15:33;23.30;;;13.80;;
29814;SDS011;16708;50.426;7.664;2024-03-07T10:20:27;23.30;;;13.90;;
29814;SDS011;16708;50.426;7.664;2024-03-07T10:25:22;24.70;;;14.30;;
29814;SDS011;16708;50.426;7.664;2024-03-07T10:30:18;22.90;;;14.20;;
29814;SDS011;16708;50.426;7.664;2024-03-07T10:35:09;23.40;;;13.50;;
29814;SDS011;16708;50.426;7.664;2024-03-07T10:40:02;23.20;;;13.20;;
29814;SDS011;16708;50.426;7.664;2024-03-07T10:49:52;21.70;;;12.80;;
29814;SDS011;16708;50.426;7.664;2024-03-07T10:54:46;23.30;;;13.30;;
29814;SDS011;16708;50.426;7.664;2024-03-07T10:59:41;21.40;;;13.40;;
29814;SDS011;16708;50.426;7.664;2024-03-07T11:04:36;20.80;;;12.70;;
29814;SDS011;16708;50.426;7.664;2024-03-07T11:09:29;29.90;;;15.90;;
29814;SDS011;16708;50.426;7.664;2024-03-07T11:14:24;20.60;;;12.70;;
29814;SDS011;16708;50.426;7.664;2024-03-07T11:24:14;18.60;;;12.90;;
29814;SDS011;16708;50.426;7.664;2024-03-07T11:34:03;17.30;;;12.60;;
29814;SDS011;16708;50.426;7.664;2024-03-07T11:38:58;18.10;;;13.30;;
29814;SDS011;16708;50.426;7.664;2024-03-07T11:43:52;20.50;;;13.50;;
29814;SDS011;16708;50.426;7.664;2024-03-07T11:48:46;18.60;;;12.50;;
29814;SDS011;16708;50.426;7.664;2024-03-07T11:53:41;16.30;;;12.10;;
29814;SDS011;16708;50.426;7.664;2024-03-07T11:58:36;19.30;;;13.60;;
29814;SDS011;16708;50.426;7.664;2024-03-07T12:03:29;18.10;;;12.60;;
29814;SDS011;16708;50.426;7.664;2024-03-07T12:08:23;18.10;;;12.60;;
29814;SDS011;16708;50.426;7.664;2024-03-07T12:13:18;16.30;;;12.30;;
29814;SDS011;16708;50.426;7.664;2024-03-07T12:18:12;18.80;;;12.90;;
29814;SDS011;16708;50.426;7.664;2024-03-07T12:23:04;18.30;;;13.10;;
29814;SDS011;16708;50.426;7.664;2024-03-07T12:32:53;18.60;;;13.30;;
29814;SDS011;16708;50.426;7.664;2024-03-07T12:37:47;18.00;;;13.20;;
29814;SDS011;16708;50.426;7.664;2024-03-07T12:42:42;16.60;;;12.60;;
29814;SDS011;16708;50.426;7.664;2024-03-07T12:47:36;18.00;;;12.60;;
29814;SDS011;16708;50.426;7.664;2024-03-07T12:52:30;20.90;;;12.80;;
29814;SDS011;16708;50.426;7.664;2024-03-07T13:02:18;16.70;;;12.60;;
29814;SDS011;16708;50.426;7.664;2024-03-07T13:07:12;16.40;;;11.90;;
29814;SDS011;16708;50.426;7.664;2024-03-07T13:12:06;16.10;;;11.90;;
29814;SDS011;16708;50.426;7.664;2024-03-07T13:17:03;15.30;;;12.00;;
29814;SDS011;16708;50.426;7.664;2024-03-07T13:21:53;16.40;;;11.40;;
29814;SDS011;16708;50.426;7.664;2024-03-07T13:26:47;13.80;;;10.50;;
29814;SDS011;16708;50.426;7.664;2024-03-07T13:31:41;14.90;;;10.30;;
29814;SDS011;16708;50.426;7.664;2024-03-07T13:36:35;14.50;;;10.50;;
29814;SDS011;16708;50.426;7.664;2024-03-07T13:41:30;15.60;;;10.50;;
29814;SDS011;16708;50.426;7.664;2024-03-07T13:46:25;13.80;;;10.90;;
29814;SDS011;16708;50.426;7.664;2024-03-07T13:51:18;13.10;;;11.00;;
29814;SDS011;16708;50.426;7.664;2024-03-07T14:30:23;18.80;;;10.60;;
29814;SDS011;16708;50.426;7.664;2024-03-07T14:45:04;18.60;;;10.00;;
29814;SDS011;16708;50.426;7.664;2024-03-07T14:49:58;16.00;;;9.10;;
29814;SDS011;16708;50.426;7.664;2024-03-07T14:54:51;20.00;;;9.70;;
29814;SDS011;16708;50.426;7.664;2024-03-07T14:59:45;16.70;;;9.50;;
29814;SDS011;16708;50.426;7.664;2024-03-07T15:04:37;16.70;;;9.30;;
29814;SDS011;16708;50.426;7.664;2024-03-07T15:09:31;15.40;;;8.40;;
29814;SDS011;16708;50.426;7.664;2024-03-07T15:14:25;15.80;;;8.30;;
29814;SDS011;16708;50.426;7.664;2024-03-07T15:19:19;14.90;;;8.30;;
29814;SDS011;16708;50.426;7.664;2024-03-07T15:24:12;15.30;;;8.20;;
29814;SDS011;16708;50.426;7.664;2024-03-07T15:29:06;13.50;;;7.80;;
29814;SDS011;16708;50.426;7.664;2024-03-07T15:34:01;15.00;;;8.20;;
29814;SDS011;16708;50.426;7.664;2024-03-07T15:48:51;17.20;;;9.10;;
29814;SDS011;16708;50.426;7.664;2024-03-07T15:53:36;15.30;;;8.10;;
29814;SDS011;16708;50.426;7.664;2024-03-07T15:58:32;18.50;;;8.50;;
29814;SDS011;16708;50.426;7.664;2024-03-07T16:03:24;17.20;;;8.60;;
29814;SDS011;16708;50.426;7.664;2024-03-07T16:08:18;16.10;;;8.50;;
29814;SDS011;16708;50.426;7.664;2024-03-07T16:13:12;20.00;;;9.00;;
29814;SDS011;16708;50.426;7.664;2024-03-07T16:18:06;16.20;;;9.00;;
29814;SDS011;16708;50.426;7.664;2024-03-07T16:23:01;18.00;;;9.00;;
29814;SDS011;16708;50.426;7.664;2024-03-07T16:27:55;18.20;;;9.60;;
29814;SDS011;16708;50.426;7.664;2024-03-07T16:32:49;19.70;;;9.30;;
29814;SDS011;16708;50.426;7.664;2024-03-07T16:37:43;19.90;;;9.80;;
29814;SDS011;16708;50.426;7.664;2024-03-07T16:42:35;21.50;;;10.00;;
29814;SDS011;16708;50.426;7.664;2024-03-07T16:47:29;21.80;;;10.20;;
29814;SDS011;16708;50.426;7.664;2024-03-07T16:52:23;18.30;;;9.20;;
29814;SDS011;16708;50.426;7.664;2024-03-07T16:57:17;22.60;;;10.40;;
29814;SDS011;16708;50.426;7.664;2024-03-07T17:02:10;20.40;;;9.10;;
29814;SDS011;16708;50.426;7.664;2024-03-07T17:07:04;20.10;;;9.50;;
29814;SDS011;16708;50.426;7.664;2024-03-07T17:11:59;19.00;;;9.30;;
29814;SDS011;16708;50.426;7.664;2024-03-07T17:16:53;21.10;;;9.50;;
29814;SDS011;16708;50.426;7.664;2024-03-07T17:21:46;20.50;;;9.40;;
29814;SDS011;16708;50.426;7.664;2024-03-07T17:26:40;23.90;;;10.60;;
29814;SDS011;16708;50.426;7.664;2024-03-07T17:31:33;20.10;;;9.90;;
29814;SDS011;16708;50.426;7.664;2024-03-07T17:36:27;23.30;;;10.30;;
29814;SDS011;16708;50.426;7.664;2024-03-07T17:41:22;23.90;;;10.50;;
29814;SDS011;16708;50.426;7.664;2024-03-07T17:46:16;26.70;;;11.50;;
29814;SDS011;16708;50.426;7.664;2024-03-07T17:51:13;25.10;;;11.40;;
29814;SDS011;16708;50.426;7.664;2024-03-07T17:56:03;23.70;;;11.00;;
29814;SDS011;16708;50.426;7.664;2024-03-07T18:00:57;25.30;;;11.30;;
29814;SDS011;16708;50.426;7.664;2024-03-07T18:05:51;25.00;;;11.40;;
29814;SDS011;16708;50.426;7.664;2024-03-07T18:10:45;25.30;;;11.40;;
29814;SDS011;16708;50.426;7.664;2024-03-07T18:15:37;23.30;;;11.10;;
29814;SDS011;16708;50.426;7.664;2024-03-07T18:20:31;25.50;;;10.80;;
29814;SDS011;16708;50.426;7.664;2024-03-07T18:25:25;23.60;;;11.20;;
29814;SDS011;16708;50.426;7.664;2024-03-07T18:30:20;23.50;;;10.60;;
29814;SDS011;16708;50.426;7.664;2024-03-07T18:35:13;27.00;;;11.00;;
29814;SDS011;16708;50.426;7.664;2024-03-07T18:45:01;22.30;;;10.40;;
29814;SDS011;16708;50.426;7.664;2024-03-07T18:49:55;22.00;;;10.20;;
29814;SDS011;16708;50.426;7.664;2024-03-07T18:54:50;22.50;;;9.90;;
29814;SDS011;16708;50.426;7.664;2024-03-07T19:04:35;23.10;;;11.20;;
29814;SDS011;16708;50.426;7.664;2024-03-07T19:09:30;21.40;;;10.30;;
29814;SDS011;16708;50.426;7.664;2024-03-07T19:14:24;20.40;;;10.40;;
29814;SDS011;16708;50.426;7.664;2024-03-07T19:19:19;22.10;;;10.60;;
29814;SDS011;16708;50.426;7.664;2024-03-07T19:24:13;22.00;;;10.60;;
29814;SDS011;16708;50.426;7.664;2024-03-07T19:29:07;21.60;;;10.80;;
29814;SDS011;16708;50.426;7.664;2024-03-07T19:34:00;21.00;;;10.70;;
29814;SDS011;16708;50.426;7.664;2024-03-07T19:38:55;21.00;;;10.70;;
29814;SDS011;16708;50.426;7.664;2024-03-07T19:43:49;21.90;;;11.30;;
29814;SDS011;16708;50.426;7.664;2024-03-07T19:48:42;22.10;;;11.90;;
29814;SDS011;16708;50.426;7.664;2024-03-07T19:53:37;23.60;;;12.10;;
29814;SDS011;16708;50.426;7.664;2024-03-07T19:58:30;22.30;;;11.80;;
29814;SDS011;16708;50.426;7.664;2024-03-07T20:03:25;25.50;;;11.60;;
29814;SDS011;16708;50.426;7.664;2024-03-07T20:08:19;24.30;;;12.50;;
29814;SDS011;16708;50.426;7.664;2024-03-07T20:13:13;23.40;;;12.90;;
29814;SDS011;16708;50.426;7.664;2024-03-07T20:18:07;22.90;;;12.40;;
29814;SDS011;16708;50.426;7.664;2024-03-07T20:23:02;24.60;;;12.90;;
29814;SDS011;16708;50.426;7.664;2024-03-07T20:27:56;26.80;;;13.00;;
29814;SDS011;16708;50.426;7.664;2024-03-07T20:32:50;25.80;;;13.30;;
29814;SDS011;16708;50.426;7.664;2024-03-07T20:37:44;26.30;;;12.80;;
29814;SDS011;16708;50.426;7.664;2024-03-07T20:42:37;24.00;;;12.70;;
29814;SDS011;16708;50.426;7.664;2024-03-07T20:47:30;24.80;;;12.90;;
29814;SDS011;16708;50.426;7.664;2024-03-07T20:52:24;25.10;;;13.10;;
29814;SDS011;16708;50.426;7.664;2024-03-07T20:57:18;31.20;;;13.80;;
29814;SDS011;16708;50.426;7.664;2024-03-07T21:02:12;24.20;;;12.40;;
29814;SDS011;16708;50.426;7.664;2024-03-07T21:07:06;25.80;;;13.50;;
29814;SDS011;16708;50.426;7.664;2024-03-07T21:12:00;27.80;;;13.50;;
29814;SDS011;16708;50.426;7.664;2024-03-07T21:16:55;24.30;;;12.70;;
29814;SDS011;16708;50.426;7.664;2024-03-07T21:21:49;26.40;;;13.40;;
29814;SDS011;16708;50.426;7.664;2024-03-07T21:26:43;25.80;;;13.10;;
29814;SDS011;16708;50.426;7.664;2024-03-07T21:31:37;27.00;;;13.40;;
29814;SDS011;16708;50.426;7.664;2024-03-07T21:36:31;26.50;;;13.20;;
29814;SDS011;16708;50.426;7.664;2024-03-07T21:41:25;25.20;;;13.00;;
29814;SDS011;16708;50.426;7.664;2024-03-07T21:51:12;25.40;;;12.70;;
29814;SDS011;16708;50.426;7.664;2024-03-07T21:56:05;27.70;;;13.40;;
29814;SDS011;16708;50.426;7.664;2024-03-07T22:00:59;27.60;;;12.50;;
29814;SDS011;16708;50.426;7.664;2024-03-07T22:05:53;27.60;;;13.00;;
29814;SDS011;16708;50.426;7.664;2024-03-07T22:10:46;27.00;;;12.90;;
29814;SDS011;16708;50.426;7.664;2024-03-07T22:15:39;25.90;;;13.10;;
29814;SDS011;16708;50.426;7.664;2024-03-07T22:20:34;27.20;;;13.40;;
29814;SDS011;16708;50.426;7.664;2024-03-07T22:25:28;28.70;;;13.20;;
29814;SDS011;16708;50.426;7.664;2024-03-07T22:30:22;26.70;;;12.90;;
29814;SDS011;16708;50.426;7.664;2024-03-07T22:35:16;27.50;;;12.50;;
29814;SDS011;16708;50.426;7.664;2024-03-07T22:40:11;28.80;;;13.90;;
29814;SDS011;16708;50.426;7.664;2024-03-07T22:45:06;27.00;;;13.70;;
29814;SDS011;16708;50.426;7.664;2024-03-07T22:50:00;29.00;;;13.70;;
29814;SDS011;16708;50.426;7.664;2024-03-07T22:54:54;28.40;;;13.50;;
29814;SDS011;16708;50.426;7.664;2024-03-07T22:59:48;28.90;;;13.40;;
29814;SDS011;16708;50.426;7.664;2024-03-07T23:04:42;28.20;;;12.80;;
29814;SDS011;16708;50.426;7.664;2024-03-07T23:09:34;28.70;;;13.30;;
29814;SDS011;16708;50.426;7.664;2024-03-07T23:14:28;28.80;;;13.40;;
29814;SDS011;16708;50.426;7.664;2024-03-07T23:19:22;31.10;;;13.30;;
29814;SDS011;16708;50.426;7.664;2024-03-07T23:24:16;29.90;;;14.10;;
29814;SDS011;16708;50.426;7.664;2024-03-07T23:29:10;26.10;;;12.70;;
29814;SDS011;16708;50.426;7.664;2024-03-07T23:34:05;24.80;;;12.60;;
29814;SDS011;16708;50.426;7.664;2024-03-07T23:38:59;29.40;;;13.80;;
29814;SDS011;16708;50.426;7.664;2024-03-07T23:43:53;31.70;;;13.50;;
29814;SDS011;16708;50.426;7.664;2024-03-07T23:48:47;28.20;;;13.50;;
29814;SDS011;16708;50.426;7.664;2024-03-07T23:53:40;29.60;;;13.30;;
29814;SDS011;16708;50.426;7.664;2024-03-07T23:58:34;30.40;;;13.40;;
